EDT,Max TemperatureF,Mean TemperatureF,Min TemperatureF,Max Dew PointF,MeanDew PointF,Min DewpointF,Max Humidity, Mean Humidity, Min Humidity, Max Sea Level PressureIn, Mean Sea Level PressureIn, Min Sea Level PressureIn, Max VisibilityMiles, Mean VisibilityMiles, Min VisibilityMiles, Max Wind SpeedMPH, Mean Wind SpeedMPH, Max Gust SpeedMPH,PrecipitationIn, CloudCover, Events, WindDirDegrees
2012-8-1,95,83,71,73,69,63,94,67,34,29.99,29.94,29.88,10,9,5,8,2,,0.00,4,,295
2012-8-2,96,84,71,73,71,63,94,79,34,30.00,29.95,29.90,10,8,1,22,3,28,0.00,2,Rain-Thunderstorm,247
2012-8-3,93,81,69,73,70,66,94,75,44,30.06,30.01,29.94,10,7,0,12,2,18,0.00,3,Fog,174
2012-8-4,93,83,73,72,70,64,94,70,38,30.18,30.11,30.05,10,10,10,16,4,23,0.00,2,Rain,135
2012-8-5,80,76,71,73,72,70,94,87,74,30.19,30.15,30.10,10,10,2,16,5,22,0.00,5,Rain-Thunderstorm,75
2012-8-6,91,81,71,73,72,68,94,79,49,30.14,30.09,30.02,10,9,4,15,3,20,0.00,5,Thunderstorm,124
2012-8-7,89,81,73,73,71,68,94,80,49,30.07,30.03,29.97,10,10,4,14,4,20,0.00,5,Rain-Thunderstorm,164
2012-8-8,89,80,71,73,71,66,94,78,46,30.07,30.02,29.97,10,9,0,6,1,,0.00,5,Fog,123
2012-8-9,91,81,71,77,72,70,94,88,49,30.02,29.97,29.88,10,7,0,20,2,36,0.00,3,Fog-Rain-Thunderstorm,222
2012-8-10,86,80,73,72,70,64,94,76,48,29.96,29.92,29.89,10,9,5,12,5,18,0.00,5,,230
2012-8-11,87,79,71,75,70,66,94,79,49,29.99,29.93,29.90,10,10,5,18,5,24,0.00,5,Rain-Thunderstorm,232
2012-8-12,89,79,69,70,65,55,94,69,33,30.05,30.01,29.98,10,9,4,8,1,,0.00,3,,292
2012-8-13,89,76,62,68,60,48,94,63,24,30.09,30.04,29.96,10,9,5,12,1,,0.00,0,,269
2012-8-14,93,81,69,73,69,64,89,74,41,30.05,29.99,29.91,10,10,10,13,2,18,0.00,3,Rain-Thunderstorm,236
2012-8-15,91,82,73,73,70,64,94,72,43,30.04,29.99,29.95,10,10,10,8,3,,0.00,2,Thunderstorm,266
2012-8-16,93,84,75,73,70,63,94,70,38,30.07,30.02,29.97,10,10,7,7,1,,0.00,2,,218
2012-8-17,95,83,71,70,67,61,88,65,34,30.05,29.96,29.88,10,10,10,10,4,21,0.00,2,Rain-Thunderstorm,267
2012-8-18,91,80,69,72,67,63,94,68,40,29.96,29.92,29.86,10,10,7,10,3,16,0.00,1,,278
2012-8-19,84,76,69,72,69,68,94,76,58,29.94,29.90,29.87,10,10,1,12,3,17,0.00,4,Rain-Thunderstorm,257
2012-8-20,84,78,71,73,70,66,94,83,55,30.00,29.94,29.91,10,9,4,9,4,,0.00,6,Rain,250
2012-8-21,86,78,71,72,69,63,94,81,45,30.06,30.02,29.97,10,9,1,9,2,,0.00,5,Rain-Thunderstorm,230
2012-8-22,86,78,69,72,69,66,100,81,51,30.11,30.07,30.04,10,9,0,7,1,,0.00,3,Fog,37
2012-8-23,82,76,69,70,69,64,94,83,62,30.14,30.10,30.07,10,8,4,9,2,17,0.00,2,Thunderstorm,50
2012-8-24,87,78,68,70,67,63,100,68,43,30.15,30.10,30.05,10,9,2,10,3,16,0.00,2,Rain,65
2012-8-25,87,76,64,68,61,54,94,65,31,30.18,30.13,30.09,10,9,2,9,3,16,0.00,0,,79
2012-8-26,89,74,60,66,62,59,100,67,36,30.19,30.12,30.06,10,9,5,12,2,17,0.00,0,,73
2012-8-27,87,78,68,75,70,64,94,79,55,30.09,30.04,29.99,10,10,7,16,6,23,0.00,3,Rain,68
2012-8-28,91,83,75,75,73,70,94,79,49,30.01,29.97,29.92,10,10,5,14,5,18,0.00,5,Rain,113
2012-8-29,87,79,71,75,72,70,100,85,55,30.04,29.99,29.95,10,10,3,12,2,20,0.00,4,Rain-Thunderstorm,186
2012-8-30,82,78,73,75,73,72,100,88,79,30.19,30.10,30.01,10,10,7,9,3,,0.00,6,Rain,116
2012-8-31,87,79,71,75,72,70,100,84,58,30.27,30.21,30.16,10,8,0,5,1,,0.00,3,Fog,169